Time;durP1;ratioP1;P1;durP2;ratioP2;P2;SDS_P1;SDS_P2;PMS_P1;PMS_P2;Temp;Humidity;BMP_temperature;BMP_pressure;BME280_temperature;BME280_humidity;BME280_pressure;Samples;Min_cycle;Max_cycle;Signal;HPM_P1;HPM_P2
2023/11/09 00:01:31;;;;;;;;;0.00;0.00;;;;;22.85;44.46;100291.69;4938903;28;45756;-73
2023/11/09 00:03:56;;;;;;;;;0.33;0.00;;;;;22.88;44.44;100291.31;4938842;28;45350;-72
2023/11/09 00:06:22;;;;;;;;;1.00;0.00;;;;;22.73;44.86;100262.28;4938883;28;45275;-72
2023/11/09 00:08:47;;;;;;;;;1.33;0.00;;;;;22.85;44.47;100273.97;4938661;28;45280;-73
2023/11/09 00:11:13;;;;;;;;;0.67;0.00;;;;;22.89;44.26;100292.97;4938857;28;45279;-72
2023/11/09 00:13:38;;;;;;;;;0.00;0.00;;;;;22.72;44.43;100255.34;4938326;28;45531;-72
2023/11/09 00:16:04;;;;;;;;;0.00;0.00;;;;;22.85;44.76;100270.47;4938695;28;45308;-73
2023/11/09 00:18:30;;;;;;;;;0.33;0.00;;;;;22.90;44.72;100278.66;4938773;28;45378;-73
2023/11/09 00:20:57;;;;;;;;;0.00;0.00;;;;;22.72;43.97;100258.00;4937420;28;45507;-73
2023/11/09 00:23:22;;;;;;;;;3.67;0.67;;;;;22.83;44.73;100270.69;4938227;28;47393;-73
2023/11/09 00:25:48;;;;;;;;;2.00;0.00;;;;;22.90;44.20;100269.91;4938458;28;45342;-73
2023/11/09 00:28:14;;;;;;;;;0.00;0.00;;;;;22.79;44.56;100255.38;4939140;28;45470;-73
2023/11/09 00:30:40;;;;;;;;;1.67;1.00;;;;;22.87;44.23;100270.28;4938571;28;45565;-73
2023/11/09 00:33:05;;;;;;;;;1.00;1.00;;;;;22.87;44.29;100275.59;4938144;28;45487;-73
2023/11/09 00:35:31;;;;;;;;;0.00;0.00;;;;;22.83;44.45;100261.91;4938590;28;45307;-74
2023/11/09 00:37:57;;;;;;;;;0.00;0.00;;;;;22.83;44.32;100270.69;4938143;28;45477;-72
2023/11/09 00:40:23;;;;;;;;;0.00;0.00;;;;;22.86;44.22;100272.13;4938300;28;45592;-72
2023/11/09 00:42:48;;;;;;;;;0.67;0.00;;;;;22.79;44.76;100255.38;4938140;28;46003;-73
2023/11/09 00:45:14;;;;;;;;;0.67;0.00;;;;;22.76;44.46;100235.38;4938425;28;45290;-73
2023/11/09 00:47:40;;;;;;;;;1.00;1.00;;;;;22.85;44.37;100260.69;4937283;28;45340;-73
2023/11/09 00:50:06;;;;;;;;;0.00;0.00;;;;;22.79;44.20;100247.44;4938267;28;45361;-73
2023/11/09 00:52:31;;;;;;;;;1.00;0.00;;;;;22.80;44.50;100243.75;4937917;28;46207;-73
2023/11/09 00:54:57;;;;;;;;;0.00;0.00;;;;;22.76;44.49;100240.69;4938105;28;45259;-73
2023/11/09 00:57:25;;;;;;;;;0.00;0.00;;;;;22.82;44.67;100245.19;4938125;28;45466;-73
2023/11/09 00:59:50;;;;;;;;;0.67;0.00;;;;;22.79;44.42;100240.28;4937334;28;45459;-74
2023/11/09 01:02:16;;;;;;;;;0.00;0.00;;;;;22.83;44.40;100233.56;4935363;28;46380;-73
2023/11/09 01:04:42;;;;;;;;;1.00;0.00;;;;;22.87;44.42;100241.13;4952851;28;45548;-73
2023/11/09 01:07:09;;;;;;;;;0.00;0.00;;;;;22.80;44.49;100231.31;4938250;28;45311;-72
2023/11/09 01:09:36;;;;;;;;;0.00;0.00;;;;;22.81;44.19;100243.56;4936682;28;45453;-73
2023/11/09 01:12:01;;;;;;;;;1.33;0.00;;;;;22.85;44.77;100247.44;4937724;28;47382;-73
2023/11/09 01:14:26;;;;;;;;;0.00;0.00;;;;;22.83;44.72;100241.50;4937683;28;45374;-73
2023/11/09 01:16:52;;;;;;;;;1.00;1.00;;;;;22.85;44.06;100250.09;4952788;28;45598;-73
2023/11/09 01:19:17;;;;;;;;;0.00;0.00;;;;;22.85;44.10;100251.91;4938050;28;45564;-73
2023/11/09 01:21:42;;;;;;;;;0.00;0.00;;;;;22.78;44.44;100236.00;4937892;28;46188;-73
2023/11/09 01:24:08;;;;;;;;;0.00;0.00;;;;;22.84;44.47;100255.59;4937658;28;45374;-72
2023/11/09 01:26:33;;;;;;;;;0.00;0.00;;;;;22.83;43.92;100257.44;4937689;28;45574;-73
2023/11/09 01:28:58;;;;;;;;;0.00;0.00;;;;;22.82;44.35;100261.09;4937568;28;45503;-72
2023/11/09 01:31:23;;;;;;;;;0.00;0.00;;;;;22.81;44.09;100259.47;4937598;28;46599;-73
2023/11/09 01:33:49;;;;;;;;;0.00;0.00;;;;;22.82;44.17;100266.38;4937814;28;45385;-73
2023/11/09 01:36:15;;;;;;;;;0.67;0.67;;;;;22.81;44.67;100258.66;4937353;28;45475;-72
2023/11/09 01:38:41;;;;;;;;;0.00;0.00;;;;;22.83;44.08;100261.91;4936354;28;45338;-72
2023/11/09 01:41:07;;;;;;;;;0.00;0.00;;;;;22.78;44.15;100253.75;4937423;28;47066;-73
2023/11/09 01:43:33;;;;;;;;;1.00;0.00;;;;;22.82;44.39;100255.00;4937543;28;45403;-73
2023/11/09 01:45:59;;;;;;;;;0.00;0.00;;;;;22.82;44.29;100257.66;4952309;28;45407;-74
2023/11/09 01:48:26;;;;;;;;;0.00;0.00;;;;;22.74;44.68;100248.03;4937563;28;45398;-73
2023/11/09 01:50:52;;;;;;;;;0.00;0.00;;;;;22.81;44.43;100262.13;4937017;28;46188;-73
2023/11/09 01:53:19;;;;;;;;;0.67;0.67;;;;;22.76;44.49;100251.28;4937257;28;45414;-73
2023/11/09 01:55:45;;;;;;;;;2.33;0.00;;;;;22.79;44.54;100252.72;4937434;28;45351;-74
2023/11/09 01:58:12;;;;;;;;;0.00;0.00;;;;;22.71;44.33;100229.88;4937247;28;45288;-74
2023/11/09 02:00:38;;;;;;;;;0.00;0.00;;;;;22.80;44.42;100247.22;4936981;28;45447;-73
2023/11/09 02:03:05;;;;;;;;;0.00;0.00;;;;;22.81;44.24;100237.44;4937126;28;45413;-73
2023/11/09 02:05:34;;;;;;;;;0.00;0.00;;;;;22.80;43.98;100247.22;4951888;28;45486;-74
2023/11/09 02:07:59;;;;;;;;;0.00;0.00;;;;;22.80;44.35;100241.91;4937063;28;45388;-73
2023/11/09 02:10:24;;;;;;;;;0.00;0.00;;;;;22.80;44.10;100244.56;4937099;28;47219;-74
2023/11/09 02:12:50;;;;;;;;;2.67;0.33;;;;;22.82;44.20;100241.72;4937954;28;45474;-73
2023/11/09 02:15:15;;;;;;;;;0.00;0.00;;;;;22.72;44.40;100237.59;4940619;28;45352;-73
2023/11/09 02:17:41;;;;;;;;;0.00;0.00;;;;;22.77;44.47;100252.91;4939621;28;45403;-73
2023/11/09 02:20:07;;;;;;;;;1.67;0.33;;;;;22.76;43.98;100253.94;4939942;28;46315;-73
2023/11/09 02:22:36;;;;;;;;;0.00;0.00;;;;;22.78;44.11;100259.03;4941052;28;45334;-73
2023/11/09 02:25:02;;;;;;;;;0.00;0.00;;;;;22.73;44.43;100249.84;4940804;28;45307;-73
2023/11/09 02:27:27;;;;;;;;;0.33;0.00;;;;;22.74;44.69;100246.19;4940469;28;45466;-73
2023/11/09 02:29:53;;;;;;;;;0.00;0.00;;;;;22.72;44.18;100237.59;4940024;28;46373;-73
2023/11/09 02:32:19;;;;;;;;;0.00;0.00;;;;;22.65;44.38;100233.28;4940683;28;45372;-74
2023/11/09 02:34:47;;;;;;;;;0.00;0.00;;;;;22.79;44.34;100253.56;4940417;28;45352;-73
2023/11/09 02:37:13;;;;;;;;;1.67;0.33;;;;;22.74;44.51;100240.88;4940390;28;45541;-74
2023/11/09 02:39:39;;;;;;;;;0.00;0.00;;;;;22.63;44.51;100225.53;4929761;28;47288;-73
2023/11/09 02:42:05;;;;;;;;;0.00;0.00;;;;;22.77;44.21;100242.31;4919596;28;45852;-73
2023/11/09 02:44:30;;;;;;;;;0.00;0.00;;;;;22.80;44.04;100249.03;4921244;28;45493;-73
2023/11/09 02:46:55;;;;;;;;;0.67;0.00;;;;;22.80;44.01;100249.88;4920774;28;45649;-73
2023/11/09 02:49:21;;;;;;;;;2.00;0.33;;;;;22.77;44.20;100239.66;4919597;28;46177;-73
2023/11/09 02:51:47;;;;;;;;;0.00;0.00;;;;;22.76;44.03;100240.69;4921409;28;45370;-73
2023/11/09 02:54:12;;;;;;;;;0.00;0.00;;;;;22.76;44.06;100242.50;4920713;28;45514;-73
2023/11/09 02:56:38;;;;;;;;;0.00;0.00;;;;;22.77;44.08;100242.31;4923816;28;45421;-73
2023/11/09 02:59:04;;;;;;;;;2.67;0.33;;;;;22.74;44.29;100246.19;4939556;28;47635;-73
2023/11/09 03:01:29;;;;;;;;;1.00;1.00;;;;;22.72;44.25;100234.94;4939456;28;45669;-73
2023/11/09 03:03:55;;;;;;;;;0.00;0.00;;;;;22.71;44.25;100238.66;4939728;28;45582;-74
2023/11/09 03:06:20;;;;;;;;;1.00;0.00;;;;;22.74;44.37;100242.72;4939967;28;45418;-74
2023/11/09 03:08:47;;;;;;;;;0.00;0.00;;;;;22.71;44.62;100236.00;4939624;28;46932;-74
2023/11/09 03:11:19;;;;;;;;;0.00;0.00;;;;;22.77;44.19;100236.22;4939766;28;45478;-74
2023/11/09 03:13:44;;;;;;;;;0.00;0.00;;;;;22.79;44.04;100250.09;4939636;28;45350;-73
2023/11/09 03:16:11;;;;;;;;;0.00;0.00;;;;;22.78;44.20;100243.94;4939270;28;45386;-73
2023/11/09 03:18:36;;;;;;;;;0.00;0.00;;;;;22.74;44.13;100240.06;4939560;28;46866;-73
2023/11/09 03:21:02;;;;;;;;;1.00;0.00;;;;;22.77;43.93;100242.31;4939424;28;45274;-73
2023/11/09 03:23:27;;;;;;;;;0.00;0.00;;;;;22.60;44.40;100220.63;4953902;28;45330;-74
2023/11/09 03:25:53;;;;;;;;;0.00;0.00;;;;;22.72;43.89;100232.31;4938620;28;45478;-73
2023/11/09 03:28:19;;;;;;;;;0.00;0.00;;;;;22.71;44.04;100228.03;4939918;28;47727;-73
2023/11/09 03:30:44;;;;;;;;;0.00;0.00;;;;;22.71;44.16;100228.03;4939322;28;45264;-73
2023/11/09 03:33:09;;;;;;;;;0.00;0.00;;;;;22.62;44.25;100221.22;4938940;28;45432;-73
2023/11/09 03:35:36;;;;;;;;;1.00;0.00;;;;;22.72;44.17;100237.59;4938014;28;45700;-73
2023/11/09 03:38:01;;;;;;;;;0.00;0.00;;;;;22.73;44.15;100249.84;4939135;28;46315;-73
2023/11/09 03:40:27;;;;;;;;;0.00;0.00;;;;;22.77;44.20;100255.56;4953845;28;45421;-72
2023/11/09 03:42:52;;;;;;;;;0.00;0.00;;;;;22.76;43.99;100248.66;4939387;28;45393;-73
2023/11/09 03:45:18;;;;;;;;;0.00;0.00;;;;;22.78;44.51;100240.47;4938823;28;45370;-73
2023/11/09 03:47:44;;;;;;;;;2.00;0.33;;;;;22.71;44.33;100229.88;4939309;28;46308;-73
2023/11/09 03:50:11;;;;;;;;;0.00;0.00;;;;;22.71;43.81;100246.59;4939268;28;45434;-73
2023/11/09 03:52:39;;;;;;;;;0.00;0.00;;;;;22.70;44.27;100242.31;4939106;28;45243;-73
2023/11/09 03:55:07;;;;;;;;;1.00;0.00;;;;;22.75;44.21;100249.66;4938905;28;45376;-72
2023/11/09 03:57:35;;;;;;;;;2.00;0.00;;;;;22.72;43.95;100256.16;4953573;28;46154;-73
2023/11/09 04:00:10;;;;;;;;;2.67;0.00;;;;;22.72;44.48;100253.50;4938492;28;45370;-73
2023/11/09 04:02:37;;;;;;;;;1.00;1.00;;;;;22.76;43.86;100251.28;4938944;28;45327;-74
2023/11/09 04:05:02;;;;;;;;;0.00;0.00;;;;;22.73;43.97;100249.84;4938855;28;45375;-74
2023/11/09 04:07:28;;;;;;;;;0.00;0.00;;;;;22.68;44.40;100241.66;4938472;28;45459;-74
2023/11/09 04:09:54;;;;;;;;;0.67;0.00;;;;;22.72;44.01;100248.22;4938782;28;45379;-73
2023/11/09 04:12:20;;;;;;;;;0.00;0.00;;;;;22.65;44.24;100242.03;4938805;28;45689;-73
2023/11/09 04:14:45;;;;;;;;;0.00;0.00;;;;;22.74;43.88;100256.78;4938351;28;45463;-73
2023/11/09 04:17:11;;;;;;;;;0.00;0.00;;;;;22.67;43.92;100247.97;4938487;28;46040;-73
2023/11/09 04:19:36;;;;;;;;;1.33;0.33;;;;;22.70;44.07;100258.22;4939204;28;45348;-74
2023/11/09 04:22:04;;;;;;;;;0.33;0.33;;;;;22.69;44.43;100255.75;4938758;28;45311;-73
2023/11/09 04:24:29;;;;;;;;;0.00;0.00;;;;;22.69;43.95;100259.19;4938902;28;45290;-73
2023/11/09 04:26:54;;;;;;;;;1.00;0.00;;;;;22.76;43.77;100269.03;4938492;28;46102;-74
2023/11/09 04:29:20;;;;;;;;;0.00;0.00;;;;;22.74;44.33;100261.28;4938283;28;45348;-74
2023/11/09 04:31:47;;;;;;;;;0.00;0.00;;;;;22.71;44.49;100264.34;4938672;28;45274;-73
2023/11/09 04:34:14;;;;;;;;;0.00;0.00;;;;;22.57;43.74;100243.03;4937375;28;45627;-73
2023/11/09 04:36:42;;;;;;;;;0.00;0.00;;;;;22.70;43.94;100260.84;4938059;28;45657;-73
2023/11/09 04:39:08;;;;;;;;;0.00;0.00;;;;;22.63;43.89;100250.22;4932175;28;45386;-73
2023/11/09 04:41:34;;;;;;;;;0.33;0.33;;;;;22.67;44.17;100258.56;4917955;28;45385;-73
2023/11/09 04:44:00;;;;;;;;;0.00;0.00;;;;;22.73;44.26;100270.25;4918759;28;45351;-73
2023/11/09 04:46:28;;;;;;;;;0.00;0.00;;;;;22.68;43.97;100264.69;4918591;28;47899;-73
2023/11/09 04:48:55;;;;;;;;;0.33;0.00;;;;;22.64;44.23;100261.59;4919053;28;45430;-73
2023/11/09 04:51:31;;;;;;;;;0.00;0.00;;;;;22.67;43.65;100257.75;4919257;28;45323;-72
2023/11/09 04:54:06;;;;;;;;;0.00;0.00;;;;;22.68;43.66;100270.81;4919107;28;45618;-74
2023/11/09 05:07:27;;;;;;;;;1.67;0.00;;;;;22.73;43.47;100273.72;4937908;28;45362;-73
2023/11/09 05:09:53;;;;;;;;;0.00;0.00;;;;;22.70;43.69;100266.16;4938066;28;45220;-73
2023/11/09 05:12:18;;;;;;;;;1.33;0.00;;;;;22.66;43.83;100259.59;4937543;28;45220;-74
2023/11/09 05:14:44;;;;;;;;;2.00;0.00;;;;;22.69;43.78;100274.28;4937971;28;45211;-73
2023/11/09 05:17:10;;;;;;;;;1.00;0.67;;;;;22.65;44.02;100267.75;4937689;28;46117;-73
2023/11/09 05:19:36;;;;;;;;;1.00;0.00;;;;;22.70;43.96;100281.25;4937795;28;45418;-73
2023/11/09 05:22:03;;;;;;;;;0.00;0.00;;;;;22.71;43.66;100280.25;4937901;28;45374;-73
2023/11/09 05:24:29;;;;;;;;;0.00;0.00;;;;;22.73;43.92;100280.84;4937683;28;45227;-73
2023/11/09 05:26:54;;;;;;;;;0.00;0.00;;;;;22.68;44.18;100275.31;4935980;28;45701;-73
2023/11/09 05:29:20;;;;;;;;;0.00;0.00;;;;;22.72;43.76;100277.38;4937511;28;45400;-73
2023/11/09 05:31:45;;;;;;;;;0.00;0.00;;;;;22.69;44.28;100272.44;4952751;28;45355;-73
2023/11/09 05:34:11;;;;;;;;;0.00;0.00;;;;;22.68;43.76;100267.34;4952575;28;45552;-73
2023/11/09 05:36:37;;;;;;;;;2.33;1.00;;;;;22.65;43.55;100267.75;4937851;28;46365;-72
2023/11/09 05:39:04;;;;;;;;;0.00;0.00;;;;;22.66;43.89;100259.59;4946937;28;45386;-73
2023/11/09 05:41:30;;;;;;;;;0.67;0.00;;;;;22.65;44.27;100255.31;4932864;28;45400;-73
2023/11/09 05:43:56;;;;;;;;;0.00;0.00;;;;;22.61;44.13;100256.72;4918366;28;45466;-73
2023/11/09 05:46:21;;;;;;;;;0.00;0.00;;;;;22.63;43.74;100260.81;4918181;28;45432;-73
2023/11/09 05:48:48;;;;;;;;;1.00;1.00;;;;;22.59;44.05;100258.75;4920557;28;45430;-73
2023/11/09 05:51:15;;;;;;;;;0.67;0.67;;;;;22.64;43.75;100261.59;4921842;28;45631;-73
2023/11/09 05:53:41;;;;;;;;;1.00;1.00;;;;;22.62;43.96;100255.69;4921600;28;45379;-73
2023/11/09 05:56:07;;;;;;;;;0.00;0.00;;;;;22.66;43.64;100261.44;4920901;28;47075;-73
2023/11/09 05:58:33;;;;;;;;;0.00;0.00;;;;;22.63;43.67;100260.81;4940969;28;45287;-73
2023/11/09 06:00:59;;;;;;;;;2.00;1.00;;;;;22.66;44.05;100256.94;4940771;28;45426;-73
2023/11/09 06:03:24;;;;;;;;;1.00;1.00;;;;;22.66;43.66;100258.78;4955535;28;45421;-74
2023/11/09 06:05:50;;;;;;;;;0.00;0.00;;;;;22.70;43.98;100262.69;4940793;28;46188;-74
2023/11/09 06:08:18;;;;;;;;;0.00;0.00;;;;;22.63;43.79;100246.75;4940689;28;45481;-73
2023/11/09 06:10:45;;;;;;;;;0.67;0.00;;;;;22.68;43.81;100254.91;4934510;28;45355;-74
2023/11/09 06:13:11;;;;;;;;;0.00;0.00;;;;;22.68;43.76;100254.91;4936201;28;45306;-73
2023/11/09 06:15:36;;;;;;;;;0.00;0.00;;;;;22.62;43.58;100247.75;4935786;28;45630;-73
2023/11/09 06:18:02;;;;;;;;;0.00;0.00;;;;;22.61;43.88;100238.16;4921506;28;45383;-73
2023/11/09 06:20:27;;;;;;;;;0.00;0.00;;;;;22.68;43.65;100251.44;4924184;28;45414;-74
2023/11/09 06:22:53;;;;;;;;;2.00;0.67;;;;;22.68;43.58;100252.25;4940416;28;45441;-73
2023/11/09 06:25:19;;;;;;;;;0.00;0.00;;;;;22.63;43.91;100246.75;4939818;28;47061;-73
2023/11/09 06:27:44;;;;;;;;;1.67;0.00;;;;;22.65;43.60;100257.97;4940516;28;45382;-73
2023/11/09 06:30:10;;;;;;;;;3.67;0.67;;;;;22.67;43.72;100261.22;4940369;28;45263;-74
2023/11/09 06:32:35;;;;;;;;;1.00;1.00;;;;;22.62;43.60;100253.88;4940339;28;45661;-73
2023/11/09 06:35:01;;;;;;;;;0.00;0.00;;;;;22.68;43.98;100267.34;4927362;28;48021;-73
2023/11/09 06:37:27;;;;;;;;;1.00;0.00;;;;;22.65;43.32;100262.44;4920919;28;45398;-74
2023/11/09 06:39:53;;;;;;;;;2.00;0.00;;;;;22.61;43.56;100252.22;4932378;28;45407;-75
2023/11/09 06:42:18;;;;;;;;;0.00;0.00;;;;;22.61;43.78;100254.06;4940058;28;45684;-75
2023/11/09 06:44:44;;;;;;;;;0.00;0.00;;;;;22.62;43.46;100256.53;4938651;28;46562;-74
2023/11/09 06:47:10;;;;;;;;;0.00;0.00;;;;;22.67;43.72;100255.09;4939935;28;45445;-79
2023/11/09 06:49:36;;;;;;;;;0.00;0.00;;;;;22.66;44.11;100259.59;4939900;28;45378;-79
2023/11/09 06:52:04;;;;;;;;;1.67;0.00;;;;;22.65;44.30;100263.25;4940070;28;45516;-77
2023/11/09 06:54:29;;;;;;;;;2.00;1.00;;;;;22.65;44.43;100267.75;4939680;28;45653;-79
2023/11/09 06:56:55;;;;;;;;;0.00;0.00;;;;;22.68;43.93;100273.47;4939445;28;45317;-76
2023/11/09 06:59:22;;;;;;;;;2.00;1.00;;;;;22.65;44.14;100268.56;4938454;28;45469;-77
2023/11/09 07:01:47;;;;;;;;;0.33;0.33;;;;;22.70;43.73;100276.78;4940168;28;45418;-77
2023/11/09 07:04:13;;;;;;;;;0.00;0.00;;;;;22.72;44.19;100284.50;4940276;28;47249;-77
2023/11/09 07:06:40;;;;;;;;;0.00;0.00;;;;;22.70;44.31;100273.28;4941158;28;45407;-78
2023/11/09 07:09:06;;;;;;;;;0.00;0.00;;;;;22.66;44.25;100264.91;4954863;28;45287;-78
2023/11/09 07:11:31;;;;;;;;;1.00;1.00;;;;;22.69;44.49;100269.78;4954580;28;45299;-78
2023/11/09 07:13:56;;;;;;;;;1.00;0.00;;;;;22.71;44.41;100272.28;4938512;28;45299;-77
2023/11/09 07:16:23;;;;;;;;;2.00;0.00;;;;;22.68;43.94;100270.00;4954645;28;45346;-76
2023/11/09 07:18:49;;;;;;;;;1.00;1.00;;;;;22.72;43.88;100274.72;4940272;28;45355;-76
2023/11/09 07:21:14;;;;;;;;;2.00;0.00;;;;;22.67;43.99;100273.66;4939287;28;45294;-79
2023/11/09 07:23:40;;;;;;;;;0.00;0.00;;;;;22.69;44.40;100272.44;4954328;28;47464;-79
2023/11/09 07:26:06;;;;;;;;;1.67;0.00;;;;;22.73;43.95;100280.84;4940292;28;45423;-73
2023/11/09 07:28:31;;;;;;;;;2.00;0.67;;;;;22.69;44.02;100272.44;4939632;28;45385;-77
2023/11/09 07:30:59;;;;;;;;;0.67;0.00;;;;;22.61;44.23;100256.72;4939562;28;45506;-76
2023/11/09 07:33:24;;;;;;;;;1.67;1.00;;;;;22.71;44.26;100278.41;4939232;28;47040;-75
2023/11/09 07:35:49;;;;;;;;;0.67;0.67;;;;;22.71;44.14;100274.94;4939670;28;45456;-75
2023/11/09 07:38:15;;;;;;;;;0.67;0.67;;;;;22.69;44.24;100272.44;4954366;28;45639;-75
2023/11/09 07:40:41;;;;;;;;;2.00;1.00;;;;;22.72;44.15;100281.88;4939178;28;45406;-75
2023/11/09 07:43:10;;;;;;;;;0.00;0.00;;;;;22.70;43.95;100281.25;4937775;28;47501;-76
2023/11/09 07:45:36;;;;;;;;;0.33;0.33;;;;;22.70;44.54;100276.78;4937742;28;45394;-75
2023/11/09 07:48:03;;;;;;;;;2.00;1.00;;;;;22.67;43.97;100274.47;4939195;28;45419;-75
2023/11/09 07:50:30;;;;;;;;;0.00;0.00;;;;;22.68;44.02;100288.56;4937851;28;45540;-75
2023/11/09 07:52:55;;;;;;;;;0.00;0.00;;;;;22.66;44.06;100287.94;4938415;28;45929;-75
2023/11/09 07:55:21;;;;;;;;;1.33;0.00;;;;;22.68;43.70;100289.38;4937812;28;45760;-75
2023/11/09 07:57:47;;;;;;;;;2.00;1.00;;;;;22.66;43.76;100274.69;4939191;28;45176;-75
2023/11/09 08:00:12;;;;;;;;;1.00;1.00;;;;;22.69;44.25;100287.56;4939236;28;45237;-75
2023/11/09 08:02:38;;;;;;;;;2.00;0.67;;;;;22.70;43.72;100276.78;4953787;28;47485;-75
2023/11/09 08:05:13;;;;;;;;;2.00;0.00;;;;;22.69;43.80;100276.94;4939487;28;45343;-75
2023/11/09 08:07:40;;;;;;;;;0.00;0.00;;;;;22.66;43.75;100272.88;4938546;28;45446;-75
2023/11/09 08:10:06;;;;;;;;;1.00;0.00;;;;;22.68;43.90;100276.13;4938579;28;45450;-75
2023/11/09 08:12:31;;;;;;;;;0.00;0.00;;;;;22.66;44.18;100272.88;4938653;28;46614;-75
2023/11/09 08:14:56;;;;;;;;;0.00;0.00;;;;;22.70;44.15;100271.47;4953574;28;45333;-76
2023/11/09 08:17:22;;;;;;;;;1.67;1.67;;;;;22.72;43.91;100274.72;4938983;28;45542;-75
2023/11/09 08:19:49;;;;;;;;;1.00;1.00;;;;;22.66;44.06;100253.47;4938866;28;45258;-75
2023/11/09 08:22:15;;;;;;;;;0.00;0.00;;;;;22.62;43.99;100248.56;4938181;28;47426;-75
2023/11/09 08:24:41;;;;;;;;;0.67;0.00;;;;;22.68;44.13;100254.91;4938627;28;45383;-74
2023/11/09 08:27:07;;;;;;;;;0.33;0.00;;;;;22.73;43.61;100265.78;4937567;28;45335;-75
2023/11/09 08:29:35;;;;;;;;;0.00;0.00;;;;;22.77;43.45;100260.06;4938662;28;45509;-75
2023/11/09 08:32:02;;;;;;;;;2.00;1.00;;;;;22.63;43.52;100236.13;4937277;28;46464;-74
2023/11/09 08:34:29;;;;;;;;;0.00;0.00;;;;;22.80;43.48;100255.16;4938385;28;45389;-75
2023/11/09 08:36:55;;;;;;;;;1.33;0.33;;;;;22.76;43.92;100246.00;4938184;28;45379;-75
2023/11/09 08:39:22;;;;;;;;;0.67;0.00;;;;;22.82;43.51;100261.09;4938177;28;45537;-74
2023/11/09 08:41:47;;;;;;;;;3.67;1.00;;;;;22.80;43.82;100255.16;4938554;28;45714;-74
2023/11/09 08:44:13;;;;;;;;;0.67;0.00;;;;;22.83;43.81;100249.47;4938558;28;45413;-75
2023/11/09 08:46:38;;;;;;;;;3.00;0.00;;;;;22.74;43.41;100232.13;4937384;28;45338;-74
2023/11/09 08:49:04;;;;;;;;;0.00;0.00;;;;;22.82;43.89;100239.88;4937143;28;45369;-75
2023/11/09 08:51:29;;;;;;;;;0.00;0.00;;;;;22.81;43.18;100224.16;4937878;28;45505;-75
2023/11/09 08:53:56;;;;;;;;;2.00;2.00;;;;;22.79;43.53;100213.78;4938012;28;45255;-75
2023/11/09 08:56:22;;;;;;;;;1.00;1.00;;;;;22.84;43.24;100221.94;4938436;28;45398;-75
2023/11/09 08:58:48;;;;;;;;;1.33;0.00;;;;;22.80;43.60;100219.88;4938144;28;45470;-75
2023/11/09 09:01:18;;;;;;;;;0.67;0.00;;;;;22.81;43.34;100222.34;4937839;28;46211;-76
2023/11/09 09:03:49;;;;;;;;;1.00;1.00;;;;;22.79;43.53;100219.06;4938040;28;45404;-75
2023/11/09 09:06:16;;;;;;;;;0.00;0.00;;;;;22.76;43.47;100208.88;4938699;28;45449;-75
2023/11/09 09:08:42;;;;;;;;;1.00;0.00;;;;;22.82;43.23;100216.00;4938034;28;45356;-75
2023/11/09 09:11:07;;;;;;;;;0.00;0.00;;;;;22.85;43.47;100212.94;4938099;28;45558;-75
2023/11/09 09:13:33;;;;;;;;;2.00;0.00;;;;;22.80;43.64;100201.31;4937668;28;45438;-76
2023/11/09 09:16:00;;;;;;;;;0.33;0.33;;;;;22.85;43.49;100209.47;4938226;28;45410;-76
2023/11/09 09:18:25;;;;;;;;;2.00;2.00;;;;;22.84;43.21;100203.38;4952412;28;45597;-75
2023/11/09 09:20:51;;;;;;;;;3.67;0.33;;;;;22.90;43.27;100208.91;4937480;28;46543;-75
2023/11/09 09:23:17;;;;;;;;;2.00;2.00;;;;;22.84;43.55;100203.38;4936539;28;45429;-75
2023/11/09 09:25:44;;;;;;;;;0.33;0.33;;;;;22.90;43.67;100208.91;4952967;28;45418;-75
2023/11/09 09:28:10;;;;;;;;;1.00;1.00;;;;;22.87;43.51;100196.84;4937997;28;45471;-75
2023/11/09 09:30:36;;;;;;;;;0.33;0.00;;;;;22.74;43.48;100179.09;4937646;28;45613;-75
2023/11/09 09:33:03;;;;;;;;;0.67;0.00;;;;;22.84;43.27;100191.94;4952267;28;45323;-75
2023/11/09 09:35:29;;;;;;;;;2.00;0.67;;;;;22.88;43.95;100198.47;4937701;28;45414;-75
2023/11/09 09:37:55;;;;;;;;;0.00;0.00;;;;;22.90;43.47;100192.97;4938109;28;45579;-75
2023/11/09 09:40:23;;;;;;;;;0.67;0.67;;;;;22.85;43.18;100199.69;4937096;28;46106;-75
2023/11/09 09:42:53;;;;;;;;;2.00;0.00;;;;;22.89;43.78;100202.78;4937734;28;45444;-75
2023/11/09 09:45:27;;;;;;;;;0.67;0.67;;;;;22.87;43.08;100190.72;4937548;28;45450;-75
2023/11/09 09:47:56;;;;;;;;;0.00;0.00;;;;;22.85;43.58;100190.91;4937129;28;45494;-75
2023/11/09 09:50:24;;;;;;;;;0.67;0.00;;;;;22.89;43.47;100196.63;4936300;28;47787;-75
2023/11/09 09:52:52;;;;;;;;;0.00;0.00;;;;;22.87;43.60;100185.41;4937268;28;45369;-75
2023/11/09 09:55:21;;;;;;;;;0.00;0.00;;;;;22.87;43.81;100185.41;4936347;28;45416;-75
2023/11/09 09:57:47;;;;;;;;;1.00;0.00;;;;;22.93;43.55;100195.22;4937483;28;45331;-75
2023/11/09 10:00:28;;;;;;;;;1.00;1.00;;;;;22.95;43.71;100190.53;4935757;28;47360;-76
2023/11/09 10:03:02;;;;;;;;;0.00;0.00;;;;;22.95;43.16;100198.50;4936986;28;45393;-76
2023/11/09 10:05:33;;;;;;;;;0.67;0.67;;;;;22.95;43.25;100182.59;4936958;28;45316;-76
2023/11/09 10:08:08;;;;;;;;;2.00;0.00;;;;;22.93;43.50;100185.41;4937324;28;45494;-75
2023/11/09 10:10:36;;;;;;;;;0.00;0.00;;;;;22.96;43.24;100186.84;4935712;28;46009;-75
2023/11/09 10:13:07;;;;;;;;;1.00;1.00;;;;;22.92;43.29;100183.81;4936174;28;45280;-76
2023/11/09 10:15:34;;;;;;;;;0.67;0.67;;;;;22.93;43.29;100182.75;4937427;28;45406;-75
2023/11/09 10:18:00;;;;;;;;;3.33;1.00;;;;;22.94;43.19;100181.75;4951739;28;45651;-75
2023/11/09 10:20:26;;;;;;;;;0.67;0.67;;;;;22.94;43.46;100178.28;4936857;28;46486;-75
2023/11/09 10:22:52;;;;;;;;;1.00;1.00;;;;;22.99;43.48;100193.59;4937593;28;45323;-74
2023/11/09 10:25:18;;;;;;;;;3.00;1.00;;;;;22.98;43.12;100184.81;4937235;28;45324;-76
2023/11/09 10:27:47;;;;;;;;;0.33;0.33;;;;;22.95;43.30;100170.09;4937405;28;45324;-75
2023/11/09 10:30:15;;;;;;;;;1.00;1.00;;;;;22.96;43.12;100160.31;4951629;28;45359;-75
2023/11/09 10:32:40;;;;;;;;;2.00;1.33;;;;;23.00;43.59;100168.69;4936484;28;45394;-75
2023/11/09 10:35:07;;;;;;;;;2.00;0.33;;;;;23.01;43.13;100162.34;4954012;28;45368;-75
2023/11/09 10:37:34;;;;;;;;;1.00;1.00;;;;;22.92;43.54;100154.63;4940531;28;45241;-75
2023/11/09 10:40:05;;;;;;;;;2.67;1.00;;;;;22.96;43.67;100162.97;4939808;28;46634;-75
2023/11/09 10:42:31;;;;;;;;;1.00;1.00;;;;;22.96;43.41;100171.75;4940271;28;45302;-75
2023/11/09 10:45:01;;;;;;;;;1.00;0.00;;;;;22.98;43.01;100158.28;4940329;28;45292;-74
2023/11/09 10:47:29;;;;;;;;;2.00;1.00;;;;;23.00;43.25;100166.88;4939581;28;45449;-75
2023/11/09 10:49:55;;;;;;;;;1.00;1.00;;;;;22.93;43.05;100142.16;4940109;28;45350;-75
2023/11/09 10:52:21;;;;;;;;;1.00;1.00;;;;;22.98;43.13;100150.31;4938792;28;45343;-76
2023/11/09 10:54:51;;;;;;;;;0.00;0.00;;;;;22.99;43.23;100151.97;4939829;28;45266;-75
2023/11/09 10:57:18;;;;;;;;;1.00;0.00;;;;;23.03;43.54;100155.03;4940169;28;45394;-74
2023/11/09 10:59:50;;;;;;;;;0.33;0.00;;;;;22.97;43.33;100148.69;4939873;28;47022;-75
2023/11/09 11:02:20;;;;;;;;;0.00;0.00;;;;;23.00;43.19;100148.31;4940684;28;45425;-75
2023/11/09 11:04:49;;;;;;;;;0.00;0.00;;;;;23.04;43.13;100151.34;4939863;28;45359;-75
2023/11/09 11:07:21;;;;;;;;;2.00;0.67;;;;;23.03;43.23;100147.06;4939814;28;45350;-75
2023/11/09 11:09:51;;;;;;;;;0.67;0.67;;;;;23.02;43.06;100150.75;4954692;28;47918;-75
2023/11/09 11:12:18;;;;;;;;;0.00;0.00;;;;;23.05;43.19;100139.72;4939673;28;45431;-76
2023/11/09 11:14:49;;;;;;;;;1.00;1.00;;;;;22.98;43.46;100129.09;4938132;28;45329;-76
2023/11/09 11:17:44;;;;;;;;;2.00;0.67;;;;;23.04;43.07;100125.63;4938494;28;45633;-76
2023/11/09 11:20:30;;;;;;;;;0.67;0.33;;;;;23.03;42.96;100121.34;4937520;28;46645;-75
2023/11/09 11:23:15;;;;;;;;;0.00;0.00;;;;;23.03;43.14;100108.06;4938109;28;45362;-75
2023/11/09 11:25:56;;;;;;;;;1.00;1.00;;;;;23.02;43.31;100105.63;4939620;28;45355;-75
2023/11/09 11:28:26;;;;;;;;;2.00;1.00;;;;;23.00;43.44;100099.72;4954569;28;45640;-75
2023/11/09 11:30:52;;;;;;;;;1.00;1.00;;;;;22.90;43.53;100087.66;4939452;28;45364;-75
2023/11/09 11:33:20;;;;;;;;;1.00;1.00;;;;;22.96;43.54;100089.53;4937987;28;46169;-76